createdAt,value
2022-12-04T00:01:24.368Z,1.80
2022-12-04T00:03:56.031Z,1.80
2022-12-04T00:06:23.991Z,1.90
2022-12-04T00:08:52.012Z,1.80
2022-12-04T00:11:22.277Z,1.80
2022-12-04T00:13:49.519Z,1.80
2022-12-04T00:16:19.715Z,1.80
2022-12-04T00:18:47.124Z,1.70
2022-12-04T00:21:15.636Z,1.60
2022-12-04T00:23:43.485Z,1.70
2022-12-04T00:26:15.910Z,1.60
2022-12-04T00:28:43.739Z,1.60
2022-12-04T00:31:19.617Z,1.60
2022-12-04T00:33:46.883Z,1.50
2022-12-04T00:36:16.488Z,1.50
2022-12-04T00:38:44.556Z,1.50
2022-12-04T00:41:13.284Z,1.50
2022-12-04T00:43:40.140Z,1.50
2022-12-04T00:46:07.225Z,1.50
2022-12-04T00:48:34.227Z,1.50
2022-12-04T00:51:09.958Z,1.50
2022-12-04T00:53:37.293Z,1.50
2022-12-04T00:56:05.974Z,1.60
2022-12-04T00:58:32.813Z,1.60
2022-12-04T01:01:05.573Z,1.50
2022-12-04T01:03:32.553Z,1.50
2022-12-04T01:05:59.849Z,1.50
2022-12-04T01:08:26.676Z,1.50
2022-12-04T01:10:53.485Z,1.50
2022-12-04T01:13:20.382Z,1.50
2022-12-04T01:15:49.114Z,1.50
2022-12-04T01:18:16.497Z,1.50
2022-12-04T01:20:51.813Z,1.50
2022-12-04T01:23:19.608Z,1.60
2022-12-04T01:25:57.896Z,1.50
2022-12-04T01:28:25.437Z,1.50
2022-12-04T01:31:09.012Z,1.50
2022-12-04T01:33:37.620Z,1.50
2022-12-04T01:36:07.317Z,1.50
2022-12-04T01:38:35.240Z,1.50
2022-12-04T01:41:02.675Z,1.60
2022-12-04T01:43:31.639Z,1.60
2022-12-04T01:46:01.252Z,1.60
2022-12-04T01:48:35.418Z,1.70
2022-12-04T01:51:15.078Z,1.60
2022-12-04T01:53:46.637Z,1.60
2022-12-04T01:56:14.711Z,1.60
2022-12-04T01:58:46.412Z,1.70
2022-12-04T02:01:13.278Z,1.70
2022-12-04T02:03:40.261Z,1.70
2022-12-04T02:06:07.478Z,1.70
2022-12-04T02:08:36.257Z,1.70
2022-12-04T02:11:27.112Z,1.70
2022-12-04T02:14:13.879Z,1.70
2022-12-04T02:16:55.815Z,1.80
2022-12-04T02:19:25.481Z,1.80
2022-12-04T02:21:55.730Z,1.80
2022-12-04T02:24:50.425Z,1.70
2022-12-04T02:27:38.638Z,1.80
2022-12-04T02:30:08.568Z,1.70
2022-12-04T02:32:57.228Z,1.80
2022-12-04T02:35:29.044Z,1.70
2022-12-04T02:38:32.782Z,1.70
2022-12-04T02:41:06.018Z,1.70
2022-12-04T02:43:33.883Z,1.80
2022-12-04T02:46:07.404Z,1.80
2022-12-04T02:48:39.711Z,1.80
2022-12-04T02:51:09.101Z,1.90
2022-12-04T02:53:41.087Z,1.80
2022-12-04T02:56:26.357Z,1.70
2022-12-04T02:59:13.050Z,1.60
2022-12-04T03:01:44.779Z,1.60
2022-12-04T03:04:26.966Z,1.60
2022-12-04T03:07:02.186Z,1.50
2022-12-04T03:09:35.995Z,1.50
2022-12-04T03:12:23.937Z,1.40
2022-12-04T03:15:03.356Z,1.40
2022-12-04T03:17:36.521Z,1.40
2022-12-04T03:20:07.885Z,1.40
2022-12-04T03:22:37.030Z,1.30
2022-12-04T03:25:06.511Z,1.30
2022-12-04T03:27:57.410Z,1.30
2022-12-04T03:30:24.673Z,1.20
2022-12-04T03:33:01.626Z,1.20
2022-12-04T03:35:39.319Z,1.30
2022-12-04T03:38:24.335Z,1.20
2022-12-04T03:40:56.677Z,1.30
2022-12-04T03:43:27.988Z,1.20
2022-12-04T03:46:09.818Z,1.20
2022-12-04T03:49:05.918Z,1.30
2022-12-04T03:51:51.135Z,1.20
2022-12-04T03:54:22.651Z,1.20
2022-12-04T03:56:55.239Z,1.20
2022-12-04T04:00:08.301Z,1.20
2022-12-04T04:02:39.448Z,1.20
2022-12-04T04:05:09.946Z,1.20
2022-12-04T04:07:43.614Z,1.20
2022-12-04T04:10:19.927Z,1.20
2022-12-04T04:13:14.628Z,1.20
2022-12-04T04:16:06.577Z,1.20
2022-12-04T04:18:51.870Z,1.20
2022-12-04T04:21:41.935Z,1.30
2022-12-04T04:24:18.864Z,1.20
2022-12-04T04:26:48.391Z,1.20
2022-12-04T04:29:15.593Z,1.20
2022-12-04T04:32:07.481Z,1.20
2022-12-04T04:35:11.107Z,1.20
2022-12-04T04:37:51.772Z,1.20
2022-12-04T04:40:35.604Z,1.20
2022-12-04T04:43:05.325Z,1.20
2022-12-04T04:45:35.823Z,1.20
2022-12-04T04:48:21.836Z,1.30
2022-12-04T04:50:49.947Z,1.30
2022-12-04T04:53:22.779Z,1.30
2022-12-04T04:55:50.501Z,1.30
2022-12-04T04:58:20.643Z,1.30
2022-12-04T05:01:09.328Z,1.30
2022-12-04T05:03:36.210Z,1.40
2022-12-04T05:06:03.607Z,1.30
2022-12-04T05:08:30.394Z,1.40
2022-12-04T05:10:57.213Z,1.40
2022-12-04T05:13:24.126Z,1.30
2022-12-04T05:16:17.349Z,1.40
2022-12-04T05:19:07.165Z,1.40
2022-12-04T05:21:34.530Z,1.40
2022-12-04T05:24:01.871Z,1.30
2022-12-04T05:26:28.794Z,1.40
2022-12-04T05:28:55.637Z,1.40
2022-12-04T05:31:22.466Z,1.40
2022-12-04T05:33:49.277Z,1.40
2022-12-04T05:36:16.139Z,1.40
2022-12-04T05:38:43.059Z,1.40
2022-12-04T05:41:09.877Z,1.30
2022-12-04T05:43:36.766Z,1.30
2022-12-04T05:46:08.530Z,1.40
2022-12-04T05:48:36.108Z,1.30
2022-12-04T05:51:10.916Z,1.40
2022-12-04T05:53:38.516Z,1.40
2022-12-04T05:56:07.479Z,1.40
2022-12-04T05:58:38.555Z,1.40
2022-12-04T06:01:13.778Z,1.40
2022-12-04T06:03:40.686Z,1.30
2022-12-04T06:06:25.196Z,1.30
2022-12-04T06:08:53.994Z,1.30
2022-12-04T06:11:23.789Z,1.30
2022-12-04T06:13:51.016Z,1.20
2022-12-04T06:16:21.376Z,1.30
2022-12-04T06:18:52.811Z,1.30
2022-12-04T06:21:20.605Z,1.30
2022-12-04T06:23:47.598Z,1.30
2022-12-04T06:26:14.897Z,1.20
2022-12-04T06:28:41.872Z,1.30
2022-12-04T06:31:11.974Z,1.30
2022-12-04T06:33:39.429Z,1.30
2022-12-04T06:36:08.995Z,1.30
2022-12-04T06:38:35.904Z,1.30
2022-12-04T06:41:07.918Z,1.40
2022-12-04T06:43:35.272Z,1.40
2022-12-04T06:46:04.406Z,1.40
2022-12-04T06:48:32.187Z,1.10
2022-12-04T06:51:20.277Z,1.30
2022-12-04T06:53:47.517Z,1.40
2022-12-04T06:56:18.234Z,1.30
2022-12-04T06:58:46.420Z,1.40
2022-12-04T07:01:16.357Z,1.40
2022-12-04T07:03:49.499Z,1.40
2022-12-04T07:06:30.781Z,1.40
2022-12-04T07:09:07.480Z,1.40
2022-12-04T07:11:34.867Z,1.40
2022-12-04T07:14:02.230Z,1.40
2022-12-04T07:16:31.812Z,1.50
2022-12-04T07:19:02.407Z,1.50
2022-12-04T07:21:31.417Z,1.50
2022-12-04T07:24:00.442Z,1.50
2022-12-04T07:26:28.493Z,1.60
2022-12-04T07:28:56.145Z,1.60
2022-12-04T07:31:25.189Z,1.60
2022-12-04T07:33:53.995Z,1.60
2022-12-04T07:36:22.335Z,1.70
2022-12-04T07:38:49.657Z,1.60
2022-12-04T07:41:17.682Z,1.60
2022-12-04T07:43:44.623Z,1.60
2022-12-04T07:46:17.236Z,1.60
2022-12-04T07:48:44.419Z,1.70
2022-12-04T07:51:22.529Z,1.60
2022-12-04T07:53:50.685Z,1.70
2022-12-04T07:56:18.155Z,1.90
2022-12-04T07:58:45.815Z,1.80
2022-12-04T08:01:14.376Z,1.80
2022-12-04T08:03:47.660Z,1.70
2022-12-04T08:06:19.913Z,1.80
2022-12-04T08:08:47.584Z,1.80
2022-12-04T08:11:16.616Z,1.70
2022-12-04T08:13:43.980Z,1.60
2022-12-04T08:16:12.751Z,1.70
2022-12-04T08:18:40.443Z,1.60
2022-12-04T08:21:12.701Z,1.70
2022-12-04T08:23:41.180Z,1.70
2022-12-04T08:26:08.965Z,1.70
2022-12-04T08:28:36.644Z,1.70
2022-12-04T08:31:18.385Z,1.80
2022-12-04T08:33:46.658Z,1.80
2022-12-04T08:36:16.255Z,1.80
2022-12-04T08:38:43.423Z,1.80
2022-12-04T08:41:13.662Z,1.90
2022-12-04T08:43:40.744Z,1.90
2022-12-04T08:46:12.699Z,2.00
2022-12-04T08:48:40.168Z,1.90
2022-12-04T08:51:08.315Z,1.90
2022-12-04T08:53:38.932Z,1.90
2022-12-04T08:56:06.205Z,1.90
2022-12-04T08:58:33.041Z,1.90
2022-12-04T09:01:11.854Z,2.20
2022-12-04T09:03:42.124Z,2.10
2022-12-04T09:06:10.755Z,2.00
2022-12-04T09:08:37.979Z,2.00
2022-12-04T09:11:05.865Z,2.00
2022-12-04T09:13:33.562Z,2.00
2022-12-04T09:16:03.464Z,2.10
2022-12-04T09:18:30.493Z,2.00
2022-12-04T09:20:58.754Z,2.00
2022-12-04T09:23:26.555Z,2.00
2022-12-04T09:25:53.946Z,2.10
2022-12-04T09:28:21.053Z,2.00
2022-12-04T09:30:59.522Z,2.10
2022-12-04T09:33:26.751Z,2.10
2022-12-04T09:35:53.649Z,2.10
2022-12-04T09:38:20.891Z,2.10
2022-12-04T09:41:16.710Z,2.10
2022-12-04T09:44:04.267Z,2.30
2022-12-04T09:47:00.226Z,2.20
2022-12-04T09:49:43.203Z,2.30
2022-12-04T09:52:22.070Z,2.40
2022-12-04T09:54:50.659Z,2.50
2022-12-04T09:57:25.463Z,2.40
2022-12-04T09:59:53.196Z,2.50
2022-12-04T10:02:37.811Z,2.50
2022-12-04T10:05:06.441Z,2.70
2022-12-04T10:07:59.419Z,2.60
2022-12-04T10:10:40.149Z,2.70
2022-12-04T10:13:15.866Z,2.70
2022-12-04T10:16:16.476Z,2.60
2022-12-04T10:19:10.591Z,2.80
2022-12-04T10:22:05.840Z,2.90
2022-12-04T10:24:52.944Z,2.90
2022-12-04T10:27:39.721Z,2.90
2022-12-04T10:30:26.464Z,3.00
2022-12-04T10:33:11.382Z,2.80
2022-12-04T10:35:39.316Z,2.80
2022-12-04T10:38:39.224Z,2.80
2022-12-04T10:41:16.903Z,2.80
2022-12-04T10:43:46.964Z,2.90
2022-12-04T10:46:22.574Z,3.00
2022-12-04T10:48:52.845Z,3.00
2022-12-04T10:51:21.562Z,3.00
2022-12-04T10:53:49.575Z,3.00
2022-12-04T10:56:22.314Z,3.20
2022-12-04T10:58:56.340Z,3.00
2022-12-04T11:01:24.200Z,3.00
2022-12-04T11:04:05.810Z,3.10
2022-12-04T11:06:33.166Z,3.20
2022-12-04T11:09:02.101Z,3.20
2022-12-04T11:11:34.113Z,3.20
2022-12-04T11:14:19.991Z,3.20
2022-12-04T11:17:01.128Z,3.40
2022-12-04T11:19:33.879Z,3.50
2022-12-04T11:22:15.040Z,3.60
2022-12-04T11:24:42.971Z,3.80
2022-12-04T11:27:25.716Z,3.90
2022-12-04T11:29:52.937Z,3.80
2022-12-04T11:32:33.495Z,3.90
2022-12-04T11:35:07.463Z,4.00
2022-12-04T11:37:35.879Z,4.20
2022-12-04T11:40:14.449Z,4.20
2022-12-04T11:42:41.282Z,4.10
2022-12-04T11:45:22.851Z,4.10
2022-12-04T11:48:02.492Z,4.30
2022-12-04T11:50:56.442Z,4.20
2022-12-04T11:53:34.404Z,4.30
2022-12-04T11:56:19.113Z,4.30
2022-12-04T11:59:04.128Z,4.30
2022-12-04T12:01:41.056Z,4.20
2022-12-04T12:04:26.119Z,4.30
2022-12-04T12:07:10.027Z,4.30
2022-12-04T12:10:02.959Z,4.40
2022-12-04T12:12:32.508Z,4.50
2022-12-04T12:15:12.626Z,4.60
2022-12-04T12:18:15.384Z,4.70
2022-12-04T12:21:27.150Z,4.70
2022-12-04T12:24:25.949Z,4.60
2022-12-04T12:27:30.719Z,4.60
2022-12-04T12:30:07.367Z,4.90
2022-12-04T12:32:53.891Z,5.00
2022-12-04T12:35:30.947Z,5.00
2022-12-04T12:38:06.811Z,5.00
2022-12-04T12:40:36.969Z,4.90
2022-12-04T12:43:12.338Z,5.00
2022-12-04T12:45:56.618Z,4.90
2022-12-04T12:48:26.657Z,5.00
2022-12-04T12:51:28.403Z,5.00
2022-12-04T12:53:54.315Z,4.90
2022-12-04T12:56:31.346Z,5.10
2022-12-04T12:59:01.944Z,5.10
2022-12-04T13:01:58.672Z,5.10
2022-12-04T13:04:41.658Z,5.20
2022-12-04T13:07:17.441Z,5.10
2022-12-04T13:10:03.467Z,5.10
2022-12-04T13:12:38.719Z,5.10
2022-12-04T13:15:05.900Z,5.10
2022-12-04T13:17:38.328Z,5.10
2022-12-04T13:20:10.376Z,5.10
2022-12-04T13:22:55.538Z,5.10
2022-12-04T13:25:46.735Z,5.00
2022-12-04T13:28:36.459Z,5.10
2022-12-04T13:31:03.266Z,5.20
2022-12-04T13:33:53.657Z,5.10
2022-12-04T13:36:26.531Z,5.20
2022-12-04T13:39:23.556Z,5.20
2022-12-04T13:42:02.707Z,5.20
2022-12-04T13:44:31.642Z,5.20
2022-12-04T13:46:59.954Z,5.20
2022-12-04T13:49:30.713Z,5.20
2022-12-04T13:52:00.264Z,5.20
2022-12-04T13:54:36.100Z,5.10
2022-12-04T13:57:15.114Z,5.20
2022-12-04T13:59:49.097Z,5.20
2022-12-04T14:02:38.374Z,5.20
2022-12-04T14:05:07.866Z,5.20
2022-12-04T14:07:40.192Z,5.20
2022-12-04T14:10:22.940Z,5.20
2022-12-04T14:12:59.057Z,5.10
2022-12-04T14:15:29.881Z,5.00
2022-12-04T14:18:04.710Z,4.90
2022-12-04T14:20:33.863Z,4.90
2022-12-04T14:23:28.362Z,4.80
2022-12-04T14:25:57.721Z,4.80
2022-12-04T14:28:30.716Z,4.90
2022-12-04T14:31:26.284Z,4.80
2022-12-04T14:33:59.761Z,4.80
2022-12-04T14:36:38.585Z,4.80
2022-12-04T14:39:25.453Z,4.70
2022-12-04T14:41:57.868Z,4.60
2022-12-04T14:44:31.310Z,4.50
2022-12-04T14:47:13.608Z,4.50
2022-12-04T14:50:13.610Z,4.50
2022-12-04T14:52:49.027Z,4.50
2022-12-04T14:55:49.630Z,4.40
2022-12-04T14:58:30.634Z,4.40
2022-12-04T15:00:59.948Z,4.40
2022-12-04T15:03:34.310Z,4.40
2022-12-04T15:06:12.694Z,4.40
2022-12-04T15:09:16.643Z,4.30
2022-12-04T15:12:08.913Z,4.30
2022-12-04T15:14:58.854Z,4.20
2022-12-04T15:17:25.743Z,4.30
2022-12-04T15:19:52.479Z,4.10
2022-12-04T15:22:30.322Z,4.20
2022-12-04T15:24:57.592Z,4.10
2022-12-04T15:27:32.078Z,4.20
2022-12-04T15:30:00.776Z,4.10
2022-12-04T15:32:31.049Z,4.10
2022-12-04T15:35:05.609Z,4.10
2022-12-04T15:37:33.275Z,4.10
2022-12-04T15:40:05.019Z,4.00
2022-12-04T15:42:32.058Z,4.00
2022-12-04T15:45:19.176Z,4.00
2022-12-04T15:47:45.927Z,4.00
2022-12-04T15:50:15.605Z,4.00
2022-12-04T15:53:03.893Z,4.00
2022-12-04T15:55:39.462Z,3.90
2022-12-04T15:58:16.674Z,4.00
2022-12-04T16:00:44.166Z,4.30
2022-12-04T16:03:33.436Z,4.20
2022-12-04T16:06:16.717Z,4.10
2022-12-04T16:08:45.692Z,4.10
2022-12-04T16:11:18.645Z,3.90
2022-12-04T16:13:46.425Z,3.90
2022-12-04T16:16:17.816Z,3.80
2022-12-04T16:18:45.712Z,3.70
2022-12-04T16:21:16.819Z,3.70
2022-12-04T16:23:44.110Z,3.70
2022-12-04T16:26:16.096Z,3.70
2022-12-04T16:28:42.917Z,3.70
2022-12-04T16:31:12.960Z,3.80
2022-12-04T16:33:40.265Z,3.80
2022-12-04T16:36:09.832Z,3.80
2022-12-04T16:38:36.845Z,3.80
2022-12-04T16:41:12.224Z,3.90
2022-12-04T16:43:39.054Z,3.90
2022-12-04T16:46:05.960Z,4.10
2022-12-04T16:48:34.820Z,4.20
2022-12-04T16:51:01.623Z,4.20
2022-12-04T16:53:28.484Z,4.10
2022-12-04T16:55:55.285Z,4.00
2022-12-04T16:58:22.085Z,3.90
2022-12-04T17:00:55.070Z,3.90
2022-12-04T17:03:28.232Z,3.90
2022-12-04T17:05:55.863Z,3.90
2022-12-04T17:08:23.177Z,3.90
2022-12-04T17:10:50.446Z,3.90
2022-12-04T17:13:21.721Z,3.90
2022-12-04T17:15:48.643Z,4.10
2022-12-04T17:18:20.718Z,4.00
2022-12-04T17:20:48.283Z,4.20
2022-12-04T17:23:15.135Z,4.10
2022-12-04T17:25:42.208Z,4.10
2022-12-04T17:28:09.057Z,4.00
2022-12-04T17:30:36.583Z,4.00
2022-12-04T17:33:04.871Z,4.00
2022-12-04T17:35:32.088Z,4.00
2022-12-04T17:38:05.411Z,3.90
2022-12-04T17:40:33.450Z,3.90
2022-12-04T17:43:03.419Z,3.90
2022-12-04T17:45:30.458Z,3.90
2022-12-04T17:47:57.320Z,3.90
2022-12-04T17:50:24.137Z,3.90
2022-12-04T17:52:50.936Z,3.90
2022-12-04T17:55:18.029Z,3.90
2022-12-04T17:57:44.846Z,3.90
2022-12-04T18:00:12.051Z,3.90
2022-12-04T18:02:39.049Z,3.80
2022-12-04T18:05:06.098Z,3.80
2022-12-04T18:07:33.015Z,3.80
2022-12-04T18:10:00.262Z,3.90
2022-12-04T18:12:27.367Z,3.80
2022-12-04T18:14:54.183Z,3.90
2022-12-04T18:17:21.812Z,3.80
2022-12-04T18:19:48.595Z,3.90
2022-12-04T18:22:15.494Z,3.90
2022-12-04T18:24:42.326Z,3.80
2022-12-04T18:27:09.191Z,3.80
2022-12-04T18:29:36.136Z,3.80
2022-12-04T18:32:03.067Z,3.80
2022-12-04T18:34:29.945Z,3.70
2022-12-04T18:36:56.793Z,3.80
2022-12-04T18:39:25.733Z,3.80
2022-12-04T18:41:55.593Z,3.90
2022-12-04T18:44:23.082Z,3.90
2022-12-04T18:46:49.957Z,3.80
2022-12-04T18:49:16.887Z,3.80
2022-12-04T18:51:49.565Z,3.90
2022-12-04T18:54:23.129Z,3.90
2022-12-04T18:56:50.501Z,3.90
2022-12-04T18:59:26.242Z,3.80
2022-12-04T19:01:54.468Z,3.90
2022-12-04T19:04:23.525Z,3.80
2022-12-04T19:06:52.769Z,3.80
2022-12-04T19:09:40.944Z,3.90
2022-12-04T19:12:10.777Z,3.90
2022-12-04T19:14:38.666Z,3.90
2022-12-04T19:17:05.841Z,3.90
2022-12-04T19:19:32.706Z,3.90
2022-12-04T19:22:01.151Z,3.90
2022-12-04T19:24:27.963Z,3.80
2022-12-04T19:26:54.958Z,3.90
2022-12-04T19:29:21.898Z,3.70
2022-12-04T19:31:48.772Z,3.80
2022-12-04T19:34:15.647Z,3.90
2022-12-04T19:36:42.722Z,3.90
2022-12-04T19:39:10.225Z,3.90
2022-12-04T19:41:41.398Z,3.80
2022-12-04T19:44:40.211Z,3.80
2022-12-04T19:46:56.761Z,3.90
2022-12-04T19:49:23.603Z,3.80
2022-12-04T19:51:50.575Z,3.90
2022-12-04T19:54:18.173Z,3.90
2022-12-04T19:56:49.113Z,4.00
2022-12-04T19:59:15.889Z,4.00
2022-12-04T20:01:42.823Z,4.00
2022-12-04T20:04:10.777Z,3.80
2022-12-04T20:06:40.760Z,3.90
2022-12-04T20:09:11.318Z,3.80
2022-12-04T20:11:38.866Z,3.80
2022-12-04T20:14:06.981Z,3.70
2022-12-04T20:16:35.131Z,3.70
2022-12-04T20:19:03.232Z,3.60
2022-12-04T20:21:31.944Z,3.70
2022-12-04T20:24:01.521Z,3.60
2022-12-04T20:26:31.884Z,3.50
2022-12-04T20:29:00.629Z,3.50
2022-12-04T20:31:36.554Z,3.60
2022-12-04T20:34:06.155Z,3.50
2022-12-04T20:36:37.753Z,3.50
2022-12-04T20:39:06.204Z,3.50
2022-12-04T20:41:33.677Z,3.50
2022-12-04T20:44:02.638Z,3.50
2022-12-04T20:46:32.400Z,3.50
2022-12-04T20:49:01.292Z,3.60
2022-12-04T20:51:40.192Z,3.50
2022-12-04T20:54:11.150Z,3.50
2022-12-04T20:56:38.953Z,3.40
2022-12-04T20:59:13.245Z,3.40
2022-12-04T21:01:41.061Z,3.60
2022-12-04T21:04:08.890Z,3.50
2022-12-04T21:06:38.560Z,3.70
2022-12-04T21:09:12.885Z,3.60
2022-12-04T21:11:43.000Z,3.50
2022-12-04T21:14:38.418Z,3.40
2022-12-04T21:17:07.520Z,3.50
2022-12-04T21:19:34.365Z,3.20
2022-12-04T21:22:01.522Z,3.20
2022-12-04T21:24:30.279Z,3.20
2022-12-04T21:26:57.130Z,3.20
2022-12-04T21:29:24.021Z,3.20
2022-12-04T21:31:50.807Z,3.20
2022-12-04T21:34:18.215Z,3.20
2022-12-04T21:36:46.453Z,3.10
2022-12-04T21:39:14.730Z,3.10
2022-12-04T21:42:00.224Z,3.10
2022-12-04T21:44:27.302Z,3.10
2022-12-04T21:46:54.227Z,3.20
2022-12-04T21:49:21.136Z,3.20
2022-12-04T21:51:57.214Z,3.20
2022-12-04T21:54:25.728Z,3.10
2022-12-04T21:56:52.524Z,3.00
2022-12-04T21:59:19.362Z,3.00
2022-12-04T22:01:46.221Z,3.00
2022-12-04T22:04:13.311Z,3.00
2022-12-04T22:06:40.296Z,3.00
2022-12-04T22:09:10.692Z,3.00
2022-12-04T22:11:38.919Z,3.10
2022-12-04T22:14:08.423Z,3.10
2022-12-04T22:16:41.301Z,3.00
2022-12-04T22:19:09.563Z,3.10
2022-12-04T22:21:36.507Z,3.30
2022-12-04T22:24:04.721Z,3.20
2022-12-04T22:26:32.136Z,3.10
2022-12-04T22:28:59.428Z,3.20
2022-12-04T22:31:28.534Z,3.10
2022-12-04T22:33:58.262Z,3.10
2022-12-04T22:36:31.354Z,3.10
2022-12-04T22:39:09.525Z,3.20
2022-12-04T22:41:37.863Z,3.10
2022-12-04T22:44:04.895Z,3.00
2022-12-04T22:46:32.030Z,3.00
2022-12-04T22:48:59.838Z,2.90
2022-12-04T22:51:27.583Z,2.90
2022-12-04T22:53:56.875Z,2.90
2022-12-04T22:56:29.390Z,2.90
2022-12-04T22:58:57.907Z,2.90
2022-12-04T23:01:30.288Z,2.90
2022-12-04T23:03:58.021Z,2.90
2022-12-04T23:06:27.398Z,3.00
2022-12-04T23:08:56.293Z,2.90
2022-12-04T23:11:23.988Z,2.90
2022-12-04T23:13:56.522Z,2.90
2022-12-04T23:16:24.487Z,2.90
2022-12-04T23:18:51.784Z,2.90
2022-12-04T23:21:22.268Z,2.90
2022-12-04T23:23:50.763Z,3.00
2022-12-04T23:26:20.935Z,3.00
2022-12-04T23:28:47.895Z,3.00
2022-12-04T23:31:15.419Z,3.00
2022-12-04T23:33:42.615Z,3.00
2022-12-04T23:36:13.562Z,3.10
2022-12-04T23:38:42.130Z,3.00
2022-12-04T23:41:14.376Z,3.00
2022-12-04T23:43:41.672Z,3.00
2022-12-04T23:46:11.603Z,3.00
2022-12-04T23:48:40.460Z,3.00
2022-12-04T23:51:08.413Z,2.90
2022-12-04T23:53:35.523Z,2.90
2022-12-04T23:56:07.542Z,2.80
2022-12-04T23:58:35.479Z,2.70
